Time;durP1;ratioP1;P1;durP2;ratioP2;P2;SDS_P1;SDS_P2;PMS_P1;PMS_P2;Temp;Humidity;BMP_temperature;BMP_pressure;BME280_temperature;BME280_humidity;BME280_pressure;Samples;Min_cycle;Max_cycle;Signal;HPM_P1;HPM_P2
2023/12/31 00:03:53;;;;;;;3.27;1.53;;;;;;;;;;8280340;28;20033;-56
2023/12/31 00:07:53;;;;;;;3.40;2.15;;;;;;;;;;8285404;28;20268;-58
2023/12/31 00:11:54;;;;;;;4.20;2.33;;;;;;;;;;8275508;28;20038;-58
2023/12/31 00:15:54;;;;;;;3.08;2.00;;;;;;;;;;8266017;28;20143;-59
2023/12/31 00:19:54;;;;;;;4.63;2.20;;;;;;;;;;8246815;28;20037;-59
2023/12/31 00:23:54;;;;;;;4.53;3.13;;;;;;;;;;8251477;28;20037;-59
2023/12/31 00:27:54;;;;;;;5.95;3.35;;;;;;;;;;8250649;28;20063;-59
2023/12/31 00:31:54;;;;;;;8.52;4.35;;;;;;;;;;8246953;28;20037;-59
2023/12/31 00:35:55;;;;;;;10.50;4.82;;;;;;;;;;8266359;28;20453;-58
2023/12/31 00:39:55;;;;;;;6.63;3.60;;;;;;;;;;8280400;28;20026;-58
2023/12/31 00:43:55;;;;;;;5.95;3.92;;;;;;;;;;8284521;28;20483;-58
2023/12/31 00:47:55;;;;;;;8.18;3.47;;;;;;;;;;8248033;28;20037;-59
2023/12/31 00:51:56;;;;;;;4.28;2.47;;;;;;;;;;8249712;28;20100;-58
2023/12/31 00:55:56;;;;;;;3.30;2.10;;;;;;;;;;8268728;28;20112;-57
2023/12/31 00:59:57;;;;;;;1.73;1.63;;;;;;;;;;8273963;28;20063;-57
2023/12/31 01:03:57;;;;;;;2.65;1.63;;;;;;;;;;8274537;28;20069;-58
2023/12/31 01:07:57;;;;;;;2.67;2.13;;;;;;;;;;8275572;28;20040;-58
2023/12/31 01:11:58;;;;;;;5.10;2.70;;;;;;;;;;8273932;28;20026;-57
2023/12/31 01:15:58;;;;;;;5.15;2.67;;;;;;;;;;8276541;28;20033;-58
2023/12/31 01:19:58;;;;;;;2.10;1.90;;;;;;;;;;8273023;28;20025;-58
2023/12/31 01:23:59;;;;;;;2.92;2.10;;;;;;;;;;8276107;28;21052;-58
2023/12/31 01:28:00;;;;;;;4.10;2.03;;;;;;;;;;8256659;28;20719;-59
2023/12/31 01:32:00;;;;;;;3.50;2.47;;;;;;;;;;8255816;28;20721;-58
2023/12/31 01:36:00;;;;;;;4.45;2.90;;;;;;;;;;8252488;28;20140;-59
2023/12/31 01:40:01;;;;;;;4.93;2.50;;;;;;;;;;8252781;28;20041;-59
2023/12/31 01:44:02;;;;;;;3.23;2.10;;;;;;;;;;8256922;28;20028;-58
2023/12/31 01:48:02;;;;;;;2.42;2.00;;;;;;;;;;8252483;28;20280;-60
2023/12/31 01:52:03;;;;;;;3.40;2.33;;;;;;;;;;8256696;28;20029;-59
2023/12/31 01:56:03;;;;;;;3.50;2.00;;;;;;;;;;8256036;28;20132;-61
2023/12/31 02:00:05;;;;;;;5.97;2.53;;;;;;;;;;8258384;28;20694;-59
2023/12/31 02:04:06;;;;;;;3.28;2.42;;;;;;;;;;8257377;28;20106;-59
2023/12/31 02:08:06;;;;;;;4.63;2.65;;;;;;;;;;8264427;28;20034;-58
2023/12/31 02:12:07;;;;;;;3.80;2.60;;;;;;;;;;8260962;28;21740;-57
2023/12/31 02:16:14;;;;;;;3.63;1.85;;;;;;;;;;8264056;28;22203;-58
2023/12/31 02:20:14;;;;;;;2.20;1.90;;;;;;;;;;8257541;28;20020;-59
2023/12/31 02:24:15;;;;;;;2.70;2.10;;;;;;;;;;8260579;28;20014;-57
2023/12/31 02:28:15;;;;;;;5.38;1.98;;;;;;;;;;8262708;28;20029;-58
2023/12/31 02:32:15;;;;;;;3.47;3.05;;;;;;;;;;8261062;28;20033;-58
2023/12/31 02:36:16;;;;;;;7.80;4.43;;;;;;;;;;8272169;28;20095;-57
2023/12/31 02:40:18;;;;;;;4.28;3.17;;;;;;;;;;8282247;28;20013;-57
2023/12/31 02:44:18;;;;;;;3.40;2.90;;;;;;;;;;8283337;28;20033;-57
2023/12/31 02:48:19;;;;;;;3.47;2.45;;;;;;;;;;8279733;28;21091;-57
2023/12/31 02:52:19;;;;;;;2.63;2.08;;;;;;;;;;8289307;28;20112;-57
2023/12/31 02:56:19;;;;;;;3.97;2.20;;;;;;;;;;8275521;28;20025;-58
2023/12/31 03:00:19;;;;;;;2.03;1.80;;;;;;;;;;8264116;28;20028;-58
2023/12/31 03:04:20;;;;;;;2.78;1.50;;;;;;;;;;8260951;28;20060;-58
2023/12/31 03:08:20;;;;;;;3.08;1.90;;;;;;;;;;8258565;28;20032;-58
2023/12/31 03:12:20;;;;;;;5.50;2.95;;;;;;;;;;8257223;28;20033;-56
2023/12/31 03:16:20;;;;;;;2.33;2.13;;;;;;;;;;8260864;28;20912;-57
2023/12/31 03:20:21;;;;;;;3.60;2.85;;;;;;;;;;8254484;28;20096;-58
2023/12/31 03:24:22;;;;;;;3.80;2.83;;;;;;;;;;8259478;28;20030;-58
2023/12/31 03:28:22;;;;;;;3.95;2.80;;;;;;;;;;8262089;28;20096;-58
2023/12/31 03:32:23;;;;;;;4.95;3.13;;;;;;;;;;8261224;28;20083;-58
2023/12/31 03:36:24;;;;;;;3.45;2.40;;;;;;;;;;8263090;28;20025;-58
2023/12/31 03:40:24;;;;;;;2.35;1.90;;;;;;;;;;8262597;28;20462;-58
2023/12/31 03:44:25;;;;;;;8.63;4.90;;;;;;;;;;8262876;28;20136;-58
2023/12/31 03:48:26;;;;;;;8.30;5.03;;;;;;;;;;8261560;28;20037;-58
2023/12/31 03:52:26;;;;;;;7.05;4.03;;;;;;;;;;8262230;28;20086;-57
2023/12/31 03:56:26;;;;;;;7.95;4.55;;;;;;;;;;8264514;28;20021;-58
2023/12/31 04:00:27;;;;;;;9.27;5.47;;;;;;;;;;8260035;28;21103;-58
2023/12/31 04:04:29;;;;;;;5.25;3.75;;;;;;;;;;8259820;28;20107;-58
2023/12/31 04:08:29;;;;;;;12.93;6.15;;;;;;;;;;8260469;28;20513;-59
2023/12/31 04:12:29;;;;;;;6.93;4.68;;;;;;;;;;8258482;28;20037;-57
2023/12/31 04:16:29;;;;;;;6.77;4.13;;;;;;;;;;8257767;28;20046;-58
2023/12/31 04:20:29;;;;;;;8.45;4.90;;;;;;;;;;8258574;28;20082;-58
2023/12/31 04:24:30;;;;;;;4.32;3.30;;;;;;;;;;8261129;28;20032;-58
2023/12/31 04:28:30;;;;;;;7.60;5.07;;;;;;;;;;8259802;28;20033;-58
2023/12/31 04:32:30;;;;;;;6.63;4.43;;;;;;;;;;8255881;28;20079;-58
2023/12/31 04:36:30;;;;;;;6.53;3.95;;;;;;;;;;8260014;28;20084;-58
2023/12/31 04:40:30;;;;;;;6.82;4.07;;;;;;;;;;8255610;28;20029;-58
2023/12/31 04:44:30;;;;;;;6.03;4.20;;;;;;;;;;8257215;28;20079;-58
2023/12/31 04:48:31;;;;;;;4.22;3.15;;;;;;;;;;8254060;28;20042;-58
2023/12/31 04:52:31;;;;;;;4.80;3.30;;;;;;;;;;8256518;28;20264;-59
2023/12/31 04:56:31;;;;;;;3.75;3.10;;;;;;;;;;8264710;28;20028;-58
2023/12/31 05:00:31;;;;;;;7.17;3.43;;;;;;;;;;8285808;28;20029;-58
2023/12/31 05:04:31;;;;;;;5.00;2.97;;;;;;;;;;8283618;28;20276;-58
2023/12/31 05:08:32;;;;;;;5.45;2.90;;;;;;;;;;8276905;28;20518;-58
2023/12/31 05:12:32;;;;;;;5.95;3.67;;;;;;;;;;8278700;28;20021;-58
2023/12/31 05:16:33;;;;;;;4.43;3.15;;;;;;;;;;8276142;28;20033;-57
2023/12/31 05:20:34;;;;;;;6.45;4.22;;;;;;;;;;8275320;28;20025;-57
2023/12/31 05:24:35;;;;;;;6.17;3.93;;;;;;;;;;8277835;28;20528;-58
2023/12/31 05:28:35;;;;;;;5.97;4.15;;;;;;;;;;8262719;28;20379;-58
2023/12/31 05:32:35;;;;;;;6.10;3.92;;;;;;;;;;8254149;28;20048;-59
2023/12/31 05:36:35;;;;;;;8.25;4.18;;;;;;;;;;8256758;28;20890;-57
2023/12/31 05:40:36;;;;;;;5.80;4.00;;;;;;;;;;8284556;28;20021;-57
2023/12/31 05:44:36;;;;;;;7.18;4.18;;;;;;;;;;8283950;28;20028;-58
2023/12/31 05:48:37;;;;;;;7.45;4.72;;;;;;;;;;8281087;28;20075;-58
2023/12/31 05:52:37;;;;;;;6.03;4.20;;;;;;;;;;8283614;28;20025;-57
2023/12/31 05:56:37;;;;;;;5.82;4.30;;;;;;;;;;8286157;28;20068;-58
2023/12/31 06:00:38;;;;;;;7.45;5.13;;;;;;;;;;8290363;28;20132;-58
2023/12/31 06:04:38;;;;;;;4.90;4.40;;;;;;;;;;8289625;28;20037;-58
2023/12/31 06:08:38;;;;;;;5.95;4.30;;;;;;;;;;8271555;28;20029;-57
2023/12/31 06:12:38;;;;;;;9.73;4.32;;;;;;;;;;8260528;28;20035;-57
2023/12/31 06:16:38;;;;;;;5.43;4.00;;;;;;;;;;8262527;28;20191;-58
2023/12/31 06:20:39;;;;;;;5.35;4.25;;;;;;;;;;8263062;28;20025;-57
2023/12/31 06:24:39;;;;;;;4.50;4.10;;;;;;;;;;8262495;28;20505;-57
2023/12/31 06:28:39;;;;;;;6.88;4.05;;;;;;;;;;8266680;28;20071;-57
2023/12/31 06:32:39;;;;;;;4.95;3.28;;;;;;;;;;8263132;28;20048;-57
2023/12/31 06:36:40;;;;;;;4.72;3.05;;;;;;;;;;8262588;28;20064;-58
2023/12/31 06:40:40;;;;;;;4.15;2.95;;;;;;;;;;8264219;28;20034;-58
2023/12/31 06:44:40;;;;;;;4.03;2.88;;;;;;;;;;8263719;28;20029;-59
2023/12/31 06:48:41;;;;;;;2.72;2.33;;;;;;;;;;8283675;28;20483;-58
2023/12/31 06:52:41;;;;;;;2.08;1.90;;;;;;;;;;8286217;28;20029;-58
2023/12/31 06:56:43;;;;;;;5.90;3.45;;;;;;;;;;8293960;28;20076;-59
2023/12/31 07:00:43;;;;;;;8.55;5.03;;;;;;;;;;8292818;28;20084;-57
2023/12/31 07:04:43;;;;;;;3.78;2.88;;;;;;;;;;8292191;28;20096;-58
2023/12/31 07:08:43;;;;;;;3.03;2.20;;;;;;;;;;8290679;28;20021;-57
2023/12/31 07:12:44;;;;;;;2.63;1.90;;;;;;;;;;8292065;28;20028;-58
2023/12/31 07:16:44;;;;;;;1.95;1.60;;;;;;;;;;8281956;28;20065;-58
2023/12/31 07:20:45;;;;;;;2.75;1.80;;;;;;;;;;8261212;28;20063;-58
2023/12/31 07:24:45;;;;;;;1.83;1.70;;;;;;;;;;8260658;28;20090;-58
2023/12/31 07:28:45;;;;;;;2.75;1.70;;;;;;;;;;8262715;28;20084;-58
2023/12/31 07:32:45;;;;;;;2.30;2.10;;;;;;;;;;8261517;28;20029;-59
2023/12/31 07:36:46;;;;;;;4.90;2.22;;;;;;;;;;8260261;28;20506;-58
2023/12/31 07:40:46;;;;;;;2.37;2.03;;;;;;;;;;8256473;28;20134;-58
2023/12/31 07:44:46;;;;;;;5.13;2.60;;;;;;;;;;8259322;28;20029;-58
2023/12/31 07:48:46;;;;;;;5.32;2.47;;;;;;;;;;8258249;28;20033;-59
2023/12/31 07:52:46;;;;;;;5.57;2.40;;;;;;;;;;8260865;28;20644;-59
2023/12/31 07:56:47;;;;;;;2.57;1.80;;;;;;;;;;8262401;28;20157;-59
2023/12/31 08:00:47;;;;;;;2.22;2.03;;;;;;;;;;8257797;28;20264;-59
2023/12/31 08:04:48;;;;;;;2.35;1.85;;;;;;;;;;8259372;28;20607;-59
2023/12/31 08:08:49;;;;;;;2.10;1.90;;;;;;;;;;8258883;28;20021;-59
2023/12/31 08:12:49;;;;;;;1.75;1.65;;;;;;;;;;8259580;28;20036;-59
2023/12/31 08:16:49;;;;;;;2.35;1.88;;;;;;;;;;8257176;28;20040;-61
2023/12/31 08:20:50;;;;;;;3.22;1.92;;;;;;;;;;8249876;28;21011;-59
2023/12/31 08:24:50;;;;;;;2.20;2.00;;;;;;;;;;8255210;28;20497;-59
2023/12/31 08:28:50;;;;;;;3.47;2.28;;;;;;;;;;8258146;28;20272;-59
2023/12/31 08:32:50;;;;;;;2.83;2.38;;;;;;;;;;8256545;28;20061;-58
2023/12/31 08:36:51;;;;;;;3.83;2.85;;;;;;;;;;8258994;28;20021;-59
2023/12/31 08:40:51;;;;;;;2.50;2.30;;;;;;;;;;8256383;28;20021;-59
2023/12/31 08:44:51;;;;;;;2.80;2.38;;;;;;;;;;8262679;28;20075;-61
2023/12/31 08:48:53;;;;;;;2.80;2.30;;;;;;;;;;8280642;28;20506;-59
2023/12/31 08:52:54;;;;;;;2.50;2.30;;;;;;;;;;8288378;28;20045;-58
2023/12/31 08:56:54;;;;;;;2.50;2.00;;;;;;;;;;8264007;28;20030;-58
2023/12/31 09:00:55;;;;;;;5.22;2.20;;;;;;;;;;8256383;28;20503;-57
2023/12/31 09:04:55;;;;;;;2.38;2.17;;;;;;;;;;8260560;28;20021;-58
2023/12/31 09:08:56;;;;;;;4.03;1.98;;;;;;;;;;8271010;28;20144;-59
2023/12/31 09:12:57;;;;;;;2.58;2.13;;;;;;;;;;8287057;28;20056;-58
2023/12/31 09:16:57;;;;;;;1.90;1.80;;;;;;;;;;8286102;28;20034;-59
2023/12/31 09:20:57;;;;;;;2.00;1.80;;;;;;;;;;8285432;28;20022;-59
2023/12/31 09:24:57;;;;;;;3.40;2.10;;;;;;;;;;8282057;28;20025;-59
2023/12/31 09:28:57;;;;;;;4.32;1.80;;;;;;;;;;8281734;28;20115;-59
2023/12/31 09:32:58;;;;;;;3.03;2.20;;;;;;;;;;8274163;28;20034;-59
2023/12/31 09:36:58;;;;;;;3.05;1.92;;;;;;;;;;8266847;28;20332;-59
2023/12/31 09:40:58;;;;;;;2.05;1.88;;;;;;;;;;8257754;28;20025;-57
2023/12/31 09:45:00;;;;;;;2.00;1.80;;;;;;;;;;8259826;28;20018;-59
2023/12/31 09:49:02;;;;;;;2.47;2.08;;;;;;;;;;8257816;28;20041;-58
2023/12/31 09:53:03;;;;;;;1.70;1.52;;;;;;;;;;8258551;28;20430;-59
2023/12/31 09:57:04;;;;;;;1.88;1.77;;;;;;;;;;8260418;28;20083;-59
2023/12/31 10:01:04;;;;;;;2.28;2.08;;;;;;;;;;8261953;28;20037;-58
2023/12/31 10:05:05;;;;;;;1.88;1.77;;;;;;;;;;8258313;28;20102;-59
2023/12/31 10:09:06;;;;;;;2.85;2.00;;;;;;;;;;8254787;28;20050;-57
2023/12/31 10:13:09;;;;;;;2.08;1.88;;;;;;;;;;8259638;28;20045;-58
2023/12/31 10:17:09;;;;;;;3.00;2.22;;;;;;;;;;8258781;28;20053;-59
2023/12/31 10:21:11;;;;;;;1.90;1.80;;;;;;;;;;8273499;28;21717;-59
2023/12/31 10:25:13;;;;;;;1.90;1.80;;;;;;;;;;8282830;28;22210;-57
2023/12/31 10:29:15;;;;;;;2.20;2.00;;;;;;;;;;8286010;28;20087;-59
2023/12/31 10:33:17;;;;;;;3.65;2.25;;;;;;;;;;8282685;28;20517;-59
2023/12/31 10:37:21;;;;;;;2.80;2.17;;;;;;;;;;8282366;28;20523;-59
2023/12/31 10:41:22;;;;;;;;;;;;;;;;;;8280892;28;20021;-56
2023/12/31 10:45:23;;;;;;;5.43;3.28;;;;;;;;;;8282506;28;20412;-57
2023/12/31 10:49:26;;;;;;;2.22;2.00;;;;;;;;;;8282118;28;20028;-56
2023/12/31 10:53:27;;;;;;;1.58;1.48;;;;;;;;;;8284041;28;20030;-58
2023/12/31 10:57:29;;;;;;;6.00;1.58;;;;;;;;;;8278501;28;20498;-57
2023/12/31 11:01:29;;;;;;;1.88;1.50;;;;;;;;;;8279539;28;20034;-57
2023/12/31 11:05:31;;;;;;;2.08;1.33;;;;;;;;;;8280582;28;20021;-57
2023/12/31 11:09:33;;;;;;;1.88;1.30;;;;;;;;;;8263934;28;20029;-57
2023/12/31 11:13:35;;;;;;;3.00;1.40;;;;;;;;;;8264387;28;20059;-58
2023/12/31 11:17:55;;;;;;;1.85;1.20;;;;;;;;;;8264237;28;20038;-58
2023/12/31 11:22:14;;;;;;;3.85;1.17;;;;;;;;;;8277650;28;20025;-58
2023/12/31 11:26:14;;;;;;;2.72;1.00;;;;;;;;;;8277121;28;20036;-57
2023/12/31 11:30:15;;;;;;;1.42;0.90;;;;;;;;;;8260380;28;20025;-58
2023/12/31 11:34:17;;;;;;;2.25;0.93;;;;;;;;;;8256435;28;20120;-58
2023/12/31 11:38:19;;;;;;;2.80;0.80;;;;;;;;;;8260365;28;20025;-58
2023/12/31 11:42:19;;;;;;;2.03;0.90;;;;;;;;;;8258592;28;20082;-58
2023/12/31 11:46:35;;;;;;;1.70;0.70;;;;;;;;;;8257715;28;20048;-58
2023/12/31 11:50:36;;;;;;;2.67;1.00;;;;;;;;;;8255881;28;20452;-58
2023/12/31 11:54:38;;;;;;;7.78;4.40;;;;;;;;;;8261446;28;20029;-58
2023/12/31 11:58:38;;;;;;;1.60;0.80;;;;;;;;;;8264044;28;20420;-58
2023/12/31 12:02:38;;;;;;;1.30;0.82;;;;;;;;;;8259333;28;20033;-58
2023/12/31 12:06:39;;;;;;;1.33;1.15;;;;;;;;;;8259035;28;20062;-58
2023/12/31 12:10:40;;;;;;;3.33;1.10;;;;;;;;;;8258021;28;20036;-57
2023/12/31 12:14:40;;;;;;;3.83;1.60;;;;;;;;;;8251966;28;20550;-57
2023/12/31 12:18:41;;;;;;;1.20;1.10;;;;;;;;;;8253067;28;20625;-58
2023/12/31 12:22:41;;;;;;;3.70;1.20;;;;;;;;;;8254053;28;20030;-58
2023/12/31 12:26:42;;;;;;;2.42;1.48;;;;;;;;;;8252181;28;20041;-58
2023/12/31 12:30:42;;;;;;;2.97;1.38;;;;;;;;;;8257095;28;20339;-58
2023/12/31 12:34:46;;;;;;;3.15;1.42;;;;;;;;;;8258773;28;20044;-58
2023/12/31 12:38:48;;;;;;;2.45;1.90;;;;;;;;;;8263197;28;20112;-57
2023/12/31 12:42:48;;;;;;;2.15;0.93;;;;;;;;;;8273472;28;20072;-58
2023/12/31 12:46:50;;;;;;;1.60;0.80;;;;;;;;;;8276924;28;20048;-58
2023/12/31 12:50:50;;;;;;;3.20;1.15;;;;;;;;;;8277497;28;20288;-58
2023/12/31 12:54:50;;;;;;;4.93;1.00;;;;;;;;;;8278322;28;20033;-58
2023/12/31 12:58:51;;;;;;;3.90;1.38;;;;;;;;;;8278058;28;20033;-59
2023/12/31 13:02:51;;;;;;;3.85;1.30;;;;;;;;;;8276720;28;20033;-57
2023/12/31 13:06:57;;;;;;;1.77;1.25;;;;;;;;;;8276849;28;20026;-57
2023/12/31 13:10:57;;;;;;;2.92;1.73;;;;;;;;;;8260741;28;20033;-58
2023/12/31 13:14:57;;;;;;;5.80;2.40;;;;;;;;;;8257444;28;20025;-57
2023/12/31 13:18:57;;;;;;;3.58;1.83;;;;;;;;;;8255865;28;20048;-58
2023/12/31 13:22:58;;;;;;;3.35;1.83;;;;;;;;;;8254040;28;20482;-57
2023/12/31 13:26:58;;;;;;;4.60;2.33;;;;;;;;;;8255582;28;20026;-58
2023/12/31 13:31:00;;;;;;;6.10;2.97;;;;;;;;;;8256907;28;20041;-58
2023/12/31 13:35:00;;;;;;;3.58;1.55;;;;;;;;;;8263556;28;20927;-58
2023/12/31 13:39:01;;;;;;;2.33;1.50;;;;;;;;;;8273347;28;20026;-56
2023/12/31 13:43:01;;;;;;;3.10;1.30;;;;;;;;;;8281375;28;20029;-58
2023/12/31 13:47:02;;;;;;;5.72;1.80;;;;;;;;;;8279833;28;20312;-59
2023/12/31 13:51:04;;;;;;;4.72;1.60;;;;;;;;;;8261274;28;20044;-61
2023/12/31 13:55:04;;;;;;;6.38;1.52;;;;;;;;;;8255191;28;20034;-59
2023/12/31 13:59:04;;;;;;;4.57;1.50;;;;;;;;;;8259080;28;20120;-58
2023/12/31 14:03:05;;;;;;;4.35;1.77;;;;;;;;;;8263380;28;20030;-58
2023/12/31 14:07:05;;;;;;;4.28;1.50;;;;;;;;;;8262936;28;20024;-59
2023/12/31 14:11:06;;;;;;;3.47;1.47;;;;;;;;;;8266528;28;20034;-59
2023/12/31 14:15:07;;;;;;;5.35;1.08;;;;;;;;;;8261284;28;20394;-58
2023/12/31 14:19:07;;;;;;;3.80;2.10;;;;;;;;;;8258962;28;20032;-58
2023/12/31 14:23:07;;;;;;;4.70;2.00;;;;;;;;;;8260702;28;20033;-57
2023/12/31 14:27:08;;;;;;;1.42;0.93;;;;;;;;;;8260522;28;20079;-58
2023/12/31 14:31:08;;;;;;;3.60;1.40;;;;;;;;;;8261076;28;20123;-57
2023/12/31 14:35:08;;;;;;;4.00;1.02;;;;;;;;;;8260992;28;20042;-57
2023/12/31 14:39:14;;;;;;;3.92;1.10;;;;;;;;;;8262490;28;22669;-57
2023/12/31 14:43:14;;;;;;;4.28;1.45;;;;;;;;;;8262119;28;20017;-57
2023/12/31 14:47:15;;;;;;;3.75;1.10;;;;;;;;;;8257457;28;20480;-58
2023/12/31 14:51:15;;;;;;;7.63;1.40;;;;;;;;;;8260289;28;20079;-58
2023/12/31 14:55:16;;;;;;;4.82;1.23;;;;;;;;;;8250344;28;20048;-57
2023/12/31 14:59:17;;;;;;;4.13;1.30;;;;;;;;;;8251989;28;20528;-57
2023/12/31 15:03:17;;;;;;;4.78;1.23;;;;;;;;;;8255597;28;20059;-58
2023/12/31 15:07:17;;;;;;;8.65;1.75;;;;;;;;;;8248871;28;20029;-57
2023/12/31 15:11:17;;;;;;;2.83;0.90;;;;;;;;;;8256335;28;20037;-57
2023/12/31 15:15:18;;;;;;;10.48;1.58;;;;;;;;;;8254868;28;20033;-58
2023/12/31 15:19:18;;;;;;;2.78;1.48;;;;;;;;;;8251905;28;20386;-58
2023/12/31 15:23:21;;;;;;;5.95;1.52;;;;;;;;;;8251031;28;20033;-59
2023/12/31 15:27:21;;;;;;;4.28;1.30;;;;;;;;;;8254517;28;20021;-58
2023/12/31 15:31:21;;;;;;;5.90;1.38;;;;;;;;;;8254553;28;20160;-58
2023/12/31 15:35:22;;;;;;;3.05;1.10;;;;;;;;;;8250460;28;20036;-57
2023/12/31 15:39:23;;;;;;;6.03;1.45;;;;;;;;;;8255542;28;20136;-57
2023/12/31 15:43:23;;;;;;;8.63;2.10;;;;;;;;;;8250460;28;20715;-57
2023/12/31 15:47:23;;;;;;;4.38;1.70;;;;;;;;;;8256055;28;20045;-59
2023/12/31 15:51:24;;;;;;;2.75;1.02;;;;;;;;;;8272934;28;20025;-58
2023/12/31 15:55:24;;;;;;;3.22;1.20;;;;;;;;;;8272870;28;20028;-57
2023/12/31 15:59:25;;;;;;;6.78;1.13;;;;;;;;;;8262822;28;20032;-58
2023/12/31 16:03:25;;;;;;;5.78;1.80;;;;;;;;;;8252449;28;20036;-58
2023/12/31 16:07:25;;;;;;;8.05;1.70;;;;;;;;;;8258225;28;20030;-56
2023/12/31 16:11:25;;;;;;;3.50;1.20;;;;;;;;;;8250857;28;20036;-57
2023/12/31 16:15:25;;;;;;;6.70;1.40;;;;;;;;;;8255450;28;20038;-56
2023/12/31 16:19:26;;;;;;;6.50;1.70;;;;;;;;;;8248608;28;20024;-57
2023/12/31 16:23:26;;;;;;;3.72;1.30;;;;;;;;;;8248876;28;20866;-58
2023/12/31 16:27:26;;;;;;;6.38;1.40;;;;;;;;;;8242161;28;20033;-57
2023/12/31 16:31:26;;;;;;;7.38;2.05;;;;;;;;;;8245827;28;20037;-58
2023/12/31 16:35:26;;;;;;;4.90;1.83;;;;;;;;;;8249594;28;20502;-58
2023/12/31 16:39:28;;;;;;;6.47;1.38;;;;;;;;;;8257312;28;20342;-58
2023/12/31 16:43:28;;;;;;;3.53;1.17;;;;;;;;;;8262748;28;20072;-58
2023/12/31 16:47:28;;;;;;;8.70;1.65;;;;;;;;;;8267722;28;20065;-56
2023/12/31 16:51:31;;;;;;;4.93;1.30;;;;;;;;;;8269064;28;20021;-57
2023/12/31 16:55:31;;;;;;;7.35;1.48;;;;;;;;;;8266865;28;20029;-58
2023/12/31 16:59:31;;;;;;;3.90;1.37;;;;;;;;;;8262086;28;20037;-59
2023/12/31 17:03:32;;;;;;;7.32;1.73;;;;;;;;;;8249636;28;20757;-59
2023/12/31 17:07:32;;;;;;;6.20;1.23;;;;;;;;;;8252715;28;20029;-58
2023/12/31 17:11:33;;;;;;;5.97;1.77;;;;;;;;;;8248351;28;20161;-58
2023/12/31 17:15:34;;;;;;;3.28;1.25;;;;;;;;;;8251918;28;20037;-58
2023/12/31 17:19:34;;;;;;;8.88;1.65;;;;;;;;;;8252162;28;20029;-58
2023/12/31 17:23:34;;;;;;;10.10;1.80;;;;;;;;;;8254286;28;20604;-57
2023/12/31 17:27:35;;;;;;;5.00;1.50;;;;;;;;;;8248152;28;21429;-58
2023/12/31 17:31:35;;;;;;;7.72;3.35;;;;;;;;;;8248720;28;21034;-58
2023/12/31 17:35:38;;;;;;;12.75;3.90;;;;;;;;;;8251824;28;20686;-59
2023/12/31 17:39:38;;;;;;;8.18;2.40;;;;;;;;;;8256670;28;20551;-59
2023/12/31 17:43:39;;;;;;;5.53;1.40;;;;;;;;;;8255001;28;20033;-59
2023/12/31 17:47:39;;;;;;;4.90;1.83;;;;;;;;;;8255009;28;20044;-59
2023/12/31 17:51:39;;;;;;;7.23;1.90;;;;;;;;;;8258010;28;20033;-60
2023/12/31 17:55:39;;;;;;;6.30;2.40;;;;;;;;;;8257060;28;20036;-59
2023/12/31 17:59:39;;;;;;;5.55;1.35;;;;;;;;;;8256486;28;20568;-59
2023/12/31 18:03:40;;;;;;;11.63;1.95;;;;;;;;;;8256408;28;20037;-60
2023/12/31 18:07:40;;;;;;;4.35;1.50;;;;;;;;;;8260984;28;20035;-58
2023/12/31 18:11:40;;;;;;;8.52;1.60;;;;;;;;;;8251957;28;20645;-59
2023/12/31 18:15:41;;;;;;;6.97;1.40;;;;;;;;;;8254270;28;20040;-59
2023/12/31 18:19:41;;;;;;;10.55;1.70;;;;;;;;;;8256380;28;20120;-57
2023/12/31 18:23:41;;;;;;;4.70;1.95;;;;;;;;;;8256147;28;20025;-59
2023/12/31 18:27:41;;;;;;;7.10;1.77;;;;;;;;;;8254222;28;20026;-59
2023/12/31 18:31:43;;;;;;;7.18;1.45;;;;;;;;;;8271764;28;20042;-59
2023/12/31 18:35:43;;;;;;;9.35;1.63;;;;;;;;;;8271260;28;20033;-58
2023/12/31 18:39:43;;;;;;;7.30;1.48;;;;;;;;;;8272375;28;20108;-58
2023/12/31 18:43:43;;;;;;;5.57;1.15;;;;;;;;;;8274265;28;20037;-58
2023/12/31 18:47:43;;;;;;;4.53;1.13;;;;;;;;;;8269961;28;20418;-59
2023/12/31 18:51:44;;;;;;;7.80;1.63;;;;;;;;;;8272096;28;20141;-58
2023/12/31 18:55:44;;;;;;;4.40;1.40;;;;;;;;;;8271116;28;20514;-58
2023/12/31 18:59:44;;;;;;;7.13;1.60;;;;;;;;;;8273180;28;20048;-58
2023/12/31 19:03:44;;;;;;;7.40;1.65;;;;;;;;;;8272121;28;20372;-58
2023/12/31 19:07:44;;;;;;;6.28;1.30;;;;;;;;;;8271726;28;20029;-58
2023/12/31 19:11:45;;;;;;;7.17;1.57;;;;;;;;;;8271830;28;20538;-58
2023/12/31 19:15:45;;;;;;;6.55;1.20;;;;;;;;;;8271265;28;20279;-58
2023/12/31 19:19:45;;;;;;;5.53;1.52;;;;;;;;;;8267553;28;20697;-57
2023/12/31 19:23:45;;;;;;;5.82;1.30;;;;;;;;;;8261659;28;20079;-58
2023/12/31 19:27:45;;;;;;;6.40;1.35;;;;;;;;;;8265644;28;20029;-59
2023/12/31 19:31:45;;;;;;;4.30;1.50;;;;;;;;;;8265985;28;20034;-57
2023/12/31 19:35:46;;;;;;;6.00;1.75;;;;;;;;;;8274591;28;20030;-58
2023/12/31 19:39:46;;;;;;;5.32;1.42;;;;;;;;;;8268024;28;20144;-58
2023/12/31 19:43:46;;;;;;;7.90;1.45;;;;;;;;;;8262568;28;20025;-58
2023/12/31 19:47:46;;;;;;;3.10;1.40;;;;;;;;;;8264159;28;20038;-58
2023/12/31 19:51:48;;;;;;;5.10;1.50;;;;;;;;;;8263476;28;20037;-59
2023/12/31 19:55:49;;;;;;;9.10;1.40;;;;;;;;;;8264033;28;20763;-59
2023/12/31 19:59:49;;;;;;;7.22;1.38;;;;;;;;;;8262638;28;20029;-58
2023/12/31 20:03:50;;;;;;;6.38;1.63;;;;;;;;;;8261606;28;20041;-58
2023/12/31 20:07:50;;;;;;;6.33;1.30;;;;;;;;;;8260142;28;20327;-59
2023/12/31 20:11:50;;;;;;;7.77;2.10;;;;;;;;;;8259760;28;20078;-60
2023/12/31 20:15:50;;;;;;;8.45;1.83;;;;;;;;;;8260017;28;20283;-59
2023/12/31 20:19:50;;;;;;;6.38;1.67;;;;;;;;;;8258059;28;20030;-59
2023/12/31 20:23:51;;;;;;;5.53;1.50;;;;;;;;;;8260869;28;20027;-58
2023/12/31 20:27:51;;;;;;;5.43;1.45;;;;;;;;;;8257904;28;20025;-57
2023/12/31 20:31:52;;;;;;;3.63;1.10;;;;;;;;;;8255424;28;20040;-57
2023/12/31 20:35:52;;;;;;;7.20;1.80;;;;;;;;;;8260589;28;20126;-57
2023/12/31 20:39:52;;;;;;;2.50;1.10;;;;;;;;;;8263615;28;20126;-59
2023/12/31 20:43:53;;;;;;;9.82;1.35;;;;;;;;;;8262812;28;20025;-58
2023/12/31 20:47:54;;;;;;;5.40;1.40;;;;;;;;;;8261909;28;20049;-58
2023/12/31 20:51:54;;;;;;;10.10;1.55;;;;;;;;;;8260733;28;20025;-58
2023/12/31 20:55:54;;;;;;;6.10;1.30;;;;;;;;;;8260249;28;20029;-58
2023/12/31 20:59:54;;;;;;;5.70;1.38;;;;;;;;;;8258764;28;20327;-58
2023/12/31 21:03:55;;;;;;;2.57;1.40;;;;;;;;;;8261695;28;20048;-57
2023/12/31 21:07:55;;;;;;;5.63;1.23;;;;;;;;;;8260792;28;20272;-57
2023/12/31 21:11:55;;;;;;;5.30;1.10;;;;;;;;;;8258008;28;20553;-57
2023/12/31 21:15:55;;;;;;;2.67;1.17;;;;;;;;;;8258780;28;20072;-57
2023/12/31 21:19:57;;;;;;;6.25;1.30;;;;;;;;;;8259372;28;20331;-58
2023/12/31 21:23:57;;;;;;;4.57;1.23;;;;;;;;;;8259047;28;20116;-58
2023/12/31 21:27:57;;;;;;;4.85;1.52;;;;;;;;;;8258918;28;20272;-58
2023/12/31 21:31:57;;;;;;;5.43;1.23;;;;;;;;;;8256766;28;20092;-58
2023/12/31 21:35:57;;;;;;;4.10;1.15;;;;;;;;;;8257969;28;20291;-58
2023/12/31 21:39:58;;;;;;;2.67;0.90;;;;;;;;;;8258646;28;20150;-58
2023/12/31 21:43:58;;;;;;;2.00;1.20;;;;;;;;;;8256151;28;20025;-59
2023/12/31 21:47:58;;;;;;;5.43;1.63;;;;;;;;;;8259043;28;20164;-58
2023/12/31 21:51:58;;;;;;;3.33;1.17;;;;;;;;;;8260644;28;20029;-58
2023/12/31 21:55:58;;;;;;;3.75;1.02;;;;;;;;;;8258151;28;20021;-57
2023/12/31 21:59:59;;;;;;;5.13;1.60;;;;;;;;;;8259457;28;20430;-58
2023/12/31 22:03:59;;;;;;;6.63;1.27;;;;;;;;;;8258641;28;20029;-58
2023/12/31 22:07:59;;;;;;;4.20;1.00;;;;;;;;;;8260754;28;20057;-58
2023/12/31 22:11:59;;;;;;;5.75;1.33;;;;;;;;;;8254827;28;20168;-57
2023/12/31 22:16:00;;;;;;;6.10;1.10;;;;;;;;;;8258944;28;20560;-58
2023/12/31 22:20:02;;;;;;;4.83;1.30;;;;;;;;;;8257545;28;20940;-57
2023/12/31 22:24:02;;;;;;;4.70;1.40;;;;;;;;;;8264629;28;20268;-57
2023/12/31 22:28:03;;;;;;;1.80;1.05;;;;;;;;;;8265794;28;20040;-57
2023/12/31 22:32:03;;;;;;;3.85;1.38;;;;;;;;;;8262008;28;20134;-57
2023/12/31 22:36:03;;;;;;;2.60;1.27;;;;;;;;;;8262580;28;20034;-62
2023/12/31 22:40:04;;;;;;;6.53;1.30;;;;;;;;;;8260160;28;20029;-57
2023/12/31 22:44:04;;;;;;;7.90;1.40;;;;;;;;;;8261201;28;20858;-57
2023/12/31 22:48:05;;;;;;;6.05;1.92;;;;;;;;;;8261109;28;20510;-57
2023/12/31 22:52:05;;;;;;;2.92;1.27;;;;;;;;;;8263263;28;20017;-59
2023/12/31 22:56:06;;;;;;;5.70;1.67;;;;;;;;;;8265647;28;20485;-58
2023/12/31 23:00:11;;;;;;;2.53;1.30;;;;;;;;;;8268635;28;20168;-57
2023/12/31 23:04:12;;;;;;;37.30;17.00;;;;;;;;;;8274199;28;20821;-57
2023/12/31 23:08:12;;;;;;;42.05;19.67;;;;;;;;;;8276475;28;20060;-58
2023/12/31 23:12:12;;;;;;;52.67;23.43;;;;;;;;;;8273648;28;20030;-56
2023/12/31 23:16:16;;;;;;;112.20;60.42;;;;;;;;;;8272500;28;20370;-57
2023/12/31 23:20:17;;;;;;;;;;;;;;;;;;8275675;28;20033;-57
2023/12/31 23:24:17;;;;;;;78.32;45.88;;;;;;;;;;8274237;28;19932;-57
2023/12/31 23:28:17;;;;;;;22.92;11.85;;;;;;;;;;8275975;28;20037;-57
2023/12/31 23:32:17;;;;;;;78.07;42.38;;;;;;;;;;8272708;28;20041;-58
2023/12/31 23:36:17;;;;;;;14.98;4.80;;;;;;;;;;8273829;28;20057;-57
2023/12/31 23:40:18;;;;;;;12.23;6.53;;;;;;;;;;8273627;28;20052;-58
2023/12/31 23:44:18;;;;;;;37.42;22.13;;;;;;;;;;8273192;28;20029;-57
2023/12/31 23:48:18;;;;;;;48.38;22.90;;;;;;;;;;8270282;28;20038;-57
2023/12/31 23:52:18;;;;;;;19.00;10.00;;;;;;;;;;8272033;28;20429;-57
2023/12/31 23:56:19;;;;;;;428.02;143.23;;;;;;;;;;8272663;28;20036;-58
